createdAt,value
2018-03-31T00:00:45.829Z,12.59
2018-03-31T00:03:12.291Z,12.68
2018-03-31T00:05:38.726Z,12.52
2018-03-31T00:08:05.404Z,12.47
2018-03-31T00:10:32.735Z,12.43
2018-03-31T00:12:59.298Z,12.46
2018-03-31T00:15:26.647Z,12.46
2018-03-31T00:17:53.792Z,12.49
2018-03-31T00:20:20.599Z,12.45
2018-03-31T00:22:47.643Z,12.45
2018-03-31T00:25:15.106Z,12.36
2018-03-31T00:27:42.845Z,12.30
2018-03-31T00:30:09.520Z,12.34
2018-03-31T00:32:36.887Z,12.41
2018-03-31T00:35:03.611Z,12.51
2018-03-31T00:37:30.454Z,12.50
2018-03-31T00:39:57.406Z,12.51
2018-03-31T00:42:24.289Z,12.50
2018-03-31T00:44:51.123Z,12.42
2018-03-31T00:47:17.942Z,12.29
2018-03-31T00:49:45.164Z,12.34
2018-03-31T00:52:12.010Z,12.36
2018-03-31T00:54:39.259Z,12.29
2018-03-31T00:57:06.031Z,12.28
2018-03-31T00:59:33.662Z,12.16
2018-03-31T01:02:00.382Z,12.10
2018-03-31T01:04:27.072Z,12.03
2018-03-31T01:06:53.926Z,12.07
2018-03-31T01:09:21.793Z,12.09
2018-03-31T01:11:49.839Z,12.05
2018-03-31T01:14:16.626Z,12.10
2018-03-31T01:16:43.439Z,12.13
2018-03-31T01:19:10.236Z,12.09
2018-03-31T01:21:37.252Z,12.13
2018-03-31T01:24:03.868Z,12.11
2018-03-31T01:26:30.487Z,12.11
2018-03-31T01:28:57.099Z,12.06
2018-03-31T01:31:25.819Z,12.04
2018-03-31T01:33:52.613Z,12.03
2018-03-31T01:36:22.895Z,12.07
2018-03-31T01:41:26.431Z,11.99
2018-03-31T01:46:27.728Z,11.88
2018-03-31T01:48:54.652Z,11.83
2018-03-31T01:51:22.243Z,11.82
2018-03-31T01:53:49.465Z,11.81
2018-03-31T01:56:16.358Z,11.73
2018-03-31T01:58:42.970Z,11.78
2018-03-31T02:01:10.065Z,11.82
2018-03-31T02:03:36.734Z,11.73
2018-03-31T02:06:04.460Z,11.65
2018-03-31T02:08:31.420Z,11.69
2018-03-31T02:10:58.849Z,11.66
2018-03-31T02:13:25.937Z,11.72
2018-03-31T02:15:52.992Z,11.72
2018-03-31T02:18:19.770Z,11.68
2018-03-31T02:20:46.582Z,11.58
2018-03-31T02:23:14.218Z,11.42
2018-03-31T02:25:41.036Z,11.41
2018-03-31T02:28:08.302Z,11.37
2018-03-31T02:30:35.004Z,11.43
2018-03-31T02:33:02.801Z,11.56
2018-03-31T02:35:29.639Z,11.48
2018-03-31T02:37:56.440Z,11.50
2018-03-31T02:40:23.547Z,11.46
2018-03-31T02:42:50.279Z,11.45
2018-03-31T02:45:16.798Z,11.43
2018-03-31T02:47:44.337Z,11.82
2018-03-31T02:50:10.957Z,12.27
2018-03-31T02:52:38.070Z,12.71
2018-03-31T02:55:04.561Z,13.00
2018-03-31T02:57:31.548Z,13.49
2018-03-31T02:59:59.834Z,14.09
2018-03-31T03:02:28.580Z,14.47
2018-03-31T03:04:58.683Z,14.87
2018-03-31T03:07:26.599Z,15.00
2018-03-31T03:09:53.496Z,15.18
2018-03-31T03:12:26.891Z,15.33
2018-03-31T03:14:56.655Z,15.27
2018-03-31T03:17:23.809Z,15.41
2018-03-31T03:20:01.888Z,15.45
2018-03-31T03:22:39.715Z,15.32
2018-03-31T03:25:11.445Z,14.65
2018-03-31T03:27:43.116Z,14.49
2018-03-31T03:30:17.514Z,14.86
2018-03-31T03:32:52.082Z,14.76
2018-03-31T03:35:24.014Z,14.52
2018-03-31T03:37:57.124Z,14.39
2018-03-31T03:40:29.270Z,14.20
2018-03-31T03:43:01.764Z,14.09
2018-03-31T03:45:31.410Z,13.87
2018-03-31T03:47:59.196Z,13.57
2018-03-31T03:50:27.556Z,13.47
2018-03-31T03:53:03.867Z,12.91
2018-03-31T03:55:32.912Z,13.14
2018-03-31T03:58:02.925Z,13.19
2018-03-31T04:00:31.226Z,12.89
2018-03-31T04:02:59.623Z,12.84
2018-03-31T04:05:26.956Z,12.68
2018-03-31T04:07:55.401Z,12.40
2018-03-31T04:10:22.374Z,12.48
2018-03-31T04:12:55.428Z,12.58
2018-03-31T04:15:23.551Z,12.61
2018-03-31T04:17:51.378Z,13.05
2018-03-31T04:20:18.479Z,13.08
2018-03-31T04:22:46.354Z,12.83
2018-03-31T04:25:14.161Z,12.72
2018-03-31T04:27:40.839Z,12.59
2018-03-31T04:30:07.579Z,12.51
2018-03-31T04:32:36.524Z,12.55
2018-03-31T04:35:04.775Z,12.65
2018-03-31T04:37:34.059Z,12.33
2018-03-31T04:40:00.951Z,12.45
2018-03-31T04:42:28.228Z,12.51
2018-03-31T04:44:56.506Z,12.49
2018-03-31T04:47:23.656Z,12.60
2018-03-31T04:49:50.490Z,12.95
2018-03-31T04:52:19.412Z,12.98
2018-03-31T04:54:47.608Z,13.43
2018-03-31T04:57:14.128Z,14.04
2018-03-31T04:59:41.253Z,13.77
2018-03-31T05:02:09.756Z,13.51
2018-03-31T05:04:36.356Z,13.14
2018-03-31T05:07:04.947Z,12.98
2018-03-31T05:09:32.832Z,12.75
2018-03-31T05:12:00.247Z,12.70
2018-03-31T05:14:27.642Z,12.56
2018-03-31T05:16:55.263Z,12.58
2018-03-31T05:19:23.357Z,12.58
2018-03-31T05:21:50.917Z,12.45
2018-03-31T05:24:20.512Z,12.40
2018-03-31T05:26:49.731Z,12.33
2018-03-31T05:29:18.291Z,12.37
2018-03-31T05:31:46.478Z,12.35
2018-03-31T05:34:17.236Z,12.41
2018-03-31T05:36:44.710Z,12.49
2018-03-31T05:39:13.333Z,12.36
2018-03-31T05:41:52.886Z,12.33
2018-03-31T05:44:22.359Z,12.43
2018-03-31T05:46:49.199Z,12.59
2018-03-31T05:49:16.870Z,12.49
2018-03-31T05:54:40.105Z,12.67
2018-03-31T05:57:08.066Z,12.61
2018-03-31T05:59:37.155Z,12.63
2018-03-31T06:02:04.954Z,12.52
2018-03-31T06:04:32.720Z,12.45
2018-03-31T06:07:01.928Z,12.49
2018-03-31T06:09:29.400Z,12.44
2018-03-31T06:11:56.930Z,12.31
2018-03-31T06:14:24.580Z,12.38
2018-03-31T06:16:53.095Z,12.36
2018-03-31T06:19:23.978Z,12.46
2018-03-31T06:21:51.854Z,12.12
2018-03-31T06:24:20.727Z,12.18
2018-03-31T06:26:49.133Z,12.31
2018-03-31T06:29:17.195Z,12.46
2018-03-31T06:31:44.594Z,12.55
2018-03-31T06:34:12.127Z,12.61
2018-03-31T06:36:40.626Z,12.73
2018-03-31T06:39:08.328Z,12.68
2018-03-31T06:41:35.548Z,12.82
2018-03-31T06:44:03.320Z,12.85
2018-03-31T06:46:29.915Z,13.02
2018-03-31T06:48:57.478Z,13.21
2018-03-31T06:51:24.689Z,13.14
2018-03-31T06:53:51.663Z,13.25
2018-03-31T06:56:19.517Z,13.39
2018-03-31T06:58:46.717Z,13.71
2018-03-31T07:01:14.076Z,13.84
2018-03-31T07:03:43.836Z,14.03
2018-03-31T07:06:11.163Z,13.94
2018-03-31T07:08:40.177Z,14.09
2018-03-31T07:11:07.463Z,14.19
2018-03-31T07:13:35.266Z,14.27
2018-03-31T07:16:03.328Z,14.04
2018-03-31T07:18:31.414Z,14.07
2018-03-31T07:20:59.898Z,14.23
2018-03-31T07:23:27.100Z,14.03
2018-03-31T07:25:55.734Z,14.08
2018-03-31T07:28:23.930Z,14.07
2018-03-31T07:30:51.187Z,14.08
2018-03-31T07:33:18.524Z,14.34
2018-03-31T07:35:47.290Z,14.43
2018-03-31T07:38:25.102Z,14.43
2018-03-31T07:40:52.012Z,14.51
2018-03-31T07:43:20.130Z,14.63
2018-03-31T07:45:47.088Z,14.80
2018-03-31T07:48:14.060Z,14.92
2018-03-31T07:50:42.211Z,15.10
2018-03-31T07:53:09.359Z,14.91
2018-03-31T07:55:38.123Z,14.91
2018-03-31T07:58:04.912Z,15.12
2018-03-31T08:00:31.888Z,15.46
2018-03-31T08:02:58.716Z,15.54
2018-03-31T08:05:27.230Z,15.52
2018-03-31T08:07:54.619Z,15.44
2018-03-31T08:10:22.356Z,15.35
2018-03-31T08:12:50.397Z,15.56
2018-03-31T08:15:18.733Z,15.89
2018-03-31T08:17:46.065Z,15.90
2018-03-31T08:20:13.074Z,16.01
2018-03-31T08:22:40.336Z,16.12
2018-03-31T08:27:41.376Z,16.15
2018-03-31T08:30:07.785Z,16.26
2018-03-31T08:32:34.063Z,16.31
2018-03-31T08:35:00.414Z,16.48
2018-03-31T08:37:26.824Z,16.49
2018-03-31T08:39:54.162Z,16.45
2018-03-31T08:42:21.869Z,16.50
2018-03-31T08:44:50.148Z,16.74
2018-03-31T08:47:18.434Z,16.91
2018-03-31T08:49:45.543Z,16.75
2018-03-31T08:52:11.959Z,16.68
2018-03-31T08:54:38.401Z,16.93
2018-03-31T08:57:06.979Z,16.96
2018-03-31T08:59:33.819Z,16.98
2018-03-31T09:02:00.966Z,16.89
2018-03-31T09:04:27.658Z,16.88
2018-03-31T09:06:54.037Z,16.98
2018-03-31T09:09:22.729Z,17.05
2018-03-31T09:11:51.025Z,17.10
2018-03-31T09:14:17.471Z,17.07
2018-03-31T09:16:44.964Z,17.12
2018-03-31T09:19:14.392Z,17.19
2018-03-31T09:24:14.862Z,17.27
2018-03-31T09:26:41.850Z,17.43
2018-03-31T09:29:08.206Z,17.56
2018-03-31T09:31:34.491Z,17.50
2018-03-31T09:34:00.860Z,17.55
2018-03-31T09:36:27.505Z,17.39
2018-03-31T09:38:54.173Z,17.33
2018-03-31T09:41:20.691Z,17.36
2018-03-31T09:43:48.135Z,17.39
2018-03-31T09:46:14.870Z,17.52
2018-03-31T09:48:41.709Z,17.51
2018-03-31T09:51:08.502Z,17.52
2018-03-31T09:53:35.623Z,17.55
2018-03-31T09:56:05.729Z,17.45
2018-03-31T09:58:32.359Z,17.49
2018-03-31T10:01:03.040Z,17.51
2018-03-31T10:03:29.679Z,17.66
2018-03-31T10:05:56.424Z,17.73
2018-03-31T10:08:23.423Z,17.70
2018-03-31T10:10:50.591Z,17.93
2018-03-31T10:13:16.916Z,18.13
2018-03-31T10:15:43.599Z,18.25
2018-03-31T10:18:10.242Z,18.37
2018-03-31T10:20:36.963Z,18.53
2018-03-31T10:23:04.440Z,18.60
2018-03-31T10:25:30.799Z,18.76
2018-03-31T10:27:57.878Z,19.00
2018-03-31T10:30:25.660Z,19.03
2018-03-31T10:32:52.143Z,18.99
2018-03-31T10:35:20.896Z,19.15
2018-03-31T10:37:47.735Z,19.29
2018-03-31T10:40:14.120Z,19.37
2018-03-31T10:42:41.443Z,19.39
2018-03-31T10:45:08.321Z,19.44
2018-03-31T10:47:36.389Z,19.48
2018-03-31T10:50:03.237Z,19.71
2018-03-31T10:52:32.514Z,19.76
2018-03-31T10:55:01.375Z,19.86
2018-03-31T10:57:28.265Z,20.02
2018-03-31T10:59:55.625Z,20.20
2018-03-31T11:02:24.107Z,20.25
2018-03-31T11:04:52.245Z,20.33
2018-03-31T11:07:20.158Z,20.43
2018-03-31T11:09:46.461Z,20.55
2018-03-31T11:12:13.392Z,20.58
2018-03-31T11:14:42.100Z,20.73
2018-03-31T11:17:09.505Z,20.93
2018-03-31T11:19:36.511Z,21.15
2018-03-31T11:22:05.512Z,21.36
2018-03-31T11:24:31.734Z,21.54
2018-03-31T11:26:59.318Z,21.63
2018-03-31T11:29:26.047Z,21.69
2018-03-31T11:31:52.570Z,21.78
2018-03-31T11:34:19.105Z,21.90
2018-03-31T11:36:46.277Z,21.98
2018-03-31T11:39:14.558Z,21.94
2018-03-31T11:41:42.541Z,21.99
2018-03-31T11:44:08.785Z,22.00
2018-03-31T11:46:35.534Z,21.99
2018-03-31T11:49:03.162Z,21.97
2018-03-31T11:51:31.232Z,22.01
2018-03-31T11:53:58.425Z,22.02
2018-03-31T11:56:25.050Z,22.03
2018-03-31T11:58:51.504Z,22.05
2018-03-31T12:01:18.410Z,22.12
2018-03-31T12:03:44.720Z,22.08
2018-03-31T12:06:11.147Z,22.12
2018-03-31T12:08:37.182Z,22.05
2018-03-31T12:11:03.295Z,22.12
2018-03-31T12:13:29.460Z,22.21
2018-03-31T12:15:56.047Z,22.27
2018-03-31T12:18:22.640Z,22.27
2018-03-31T12:20:49.140Z,22.19
2018-03-31T12:23:15.791Z,22.24
2018-03-31T12:25:42.348Z,22.32
2018-03-31T12:28:08.843Z,22.30
2018-03-31T12:30:35.240Z,22.25
2018-03-31T12:33:01.540Z,22.20
2018-03-31T12:35:27.654Z,22.06
2018-03-31T12:37:54.199Z,22.14
2018-03-31T12:40:20.585Z,22.33
2018-03-31T12:42:47.299Z,22.35
2018-03-31T12:45:13.879Z,22.32
2018-03-31T12:47:40.710Z,22.29
2018-03-31T12:50:08.133Z,22.35
2018-03-31T12:52:34.883Z,22.37
2018-03-31T12:55:01.392Z,22.37
2018-03-31T12:57:27.854Z,22.44
2018-03-31T12:59:54.617Z,22.38
2018-03-31T13:02:21.218Z,22.43
2018-03-31T13:04:47.691Z,22.51
2018-03-31T13:07:13.889Z,22.50
2018-03-31T13:09:40.709Z,22.54
2018-03-31T13:12:06.887Z,22.62
2018-03-31T13:14:33.246Z,22.62
2018-03-31T13:16:59.496Z,22.61
2018-03-31T13:19:26.819Z,22.60
2018-03-31T13:21:53.400Z,22.64
2018-03-31T13:24:19.947Z,22.69
2018-03-31T13:26:46.542Z,22.75
2018-03-31T13:29:13.262Z,22.72
2018-03-31T13:31:39.960Z,22.80
2018-03-31T13:34:06.472Z,22.81
2018-03-31T13:36:35.066Z,22.70
2018-03-31T13:39:02.394Z,22.51
2018-03-31T13:41:29.118Z,22.51
2018-03-31T13:43:57.283Z,22.54
2018-03-31T13:46:24.145Z,22.52
2018-03-31T13:48:51.525Z,22.49
2018-03-31T13:51:18.760Z,22.16
2018-03-31T13:53:45.823Z,22.22
2018-03-31T13:56:12.369Z,22.18
2018-03-31T13:58:39.185Z,22.22
2018-03-31T14:01:05.846Z,22.21
2018-03-31T14:03:33.335Z,22.20
2018-03-31T14:05:59.647Z,22.16
2018-03-31T14:08:25.931Z,22.16
2018-03-31T14:10:52.894Z,22.10
2018-03-31T14:13:19.049Z,22.15
2018-03-31T14:15:45.954Z,22.13
2018-03-31T14:18:13.032Z,22.11
2018-03-31T14:20:40.359Z,22.14
2018-03-31T14:23:08.750Z,22.14
2018-03-31T14:25:35.696Z,22.18
2018-03-31T14:28:02.567Z,22.19
2018-03-31T14:30:28.997Z,22.15
2018-03-31T14:32:55.207Z,22.16
2018-03-31T14:35:21.606Z,22.07
2018-03-31T14:37:48.248Z,22.17
2018-03-31T14:40:17.734Z,22.03
2018-03-31T14:42:44.388Z,21.99
2018-03-31T14:45:11.111Z,22.08
2018-03-31T14:47:38.039Z,21.94
2018-03-31T14:50:04.789Z,21.73
2018-03-31T14:52:31.154Z,21.76
2018-03-31T14:54:57.650Z,21.81
2018-03-31T14:57:24.518Z,21.89
2018-03-31T14:59:52.660Z,21.82
2018-03-31T15:02:19.155Z,21.70
2018-03-31T15:04:45.847Z,21.67
2018-03-31T15:07:12.588Z,21.74
2018-03-31T15:09:39.319Z,21.68
2018-03-31T15:12:07.597Z,21.59
2018-03-31T15:14:34.270Z,21.63
2018-03-31T15:17:01.044Z,21.71
2018-03-31T15:19:27.980Z,21.61
2018-03-31T15:21:54.443Z,21.51
2018-03-31T15:24:21.367Z,21.50
2018-03-31T15:26:47.953Z,21.45
2018-03-31T15:29:14.234Z,21.51
2018-03-31T15:31:40.737Z,21.65
2018-03-31T15:34:08.641Z,21.63
2018-03-31T15:36:39.090Z,21.64
2018-03-31T15:41:56.021Z,21.72
2018-03-31T15:44:23.227Z,21.66
2018-03-31T15:46:50.280Z,21.59
2018-03-31T15:49:17.621Z,21.59
2018-03-31T15:51:44.802Z,21.67
2018-03-31T15:54:14.744Z,21.62
2018-03-31T15:56:43.248Z,21.46
2018-03-31T15:59:09.655Z,21.40
2018-03-31T16:01:36.771Z,21.37
2018-03-31T16:04:04.493Z,21.37
2018-03-31T16:06:30.951Z,21.42
2018-03-31T16:08:59.575Z,21.41
2018-03-31T16:11:26.220Z,21.44
2018-03-31T16:13:53.944Z,21.42
2018-03-31T16:16:21.571Z,21.36
2018-03-31T16:18:48.696Z,21.33
2018-03-31T16:21:18.422Z,21.28
2018-03-31T16:23:48.686Z,21.22
2018-03-31T16:26:16.882Z,21.15
2018-03-31T16:28:42.970Z,21.15
2018-03-31T16:31:09.831Z,21.15
2018-03-31T16:33:36.643Z,21.11
2018-03-31T16:38:31.152Z,21.01
2018-03-31T16:41:02.045Z,20.95
2018-03-31T16:43:30.179Z,20.98
2018-03-31T16:45:57.598Z,20.99
2018-03-31T16:48:24.227Z,20.93
2018-03-31T16:50:51.741Z,20.80
2018-03-31T16:53:18.933Z,20.86
2018-03-31T16:55:45.468Z,20.84
2018-03-31T16:58:12.534Z,20.79
2018-03-31T17:00:39.744Z,20.82
2018-03-31T17:03:07.473Z,20.75
2018-03-31T17:05:34.331Z,20.75
2018-03-31T17:08:01.787Z,20.70
2018-03-31T17:10:28.535Z,20.60
2018-03-31T17:12:57.087Z,20.53
2018-03-31T17:15:26.637Z,20.52
2018-03-31T17:17:55.538Z,20.55
2018-03-31T17:20:22.205Z,20.54
2018-03-31T17:22:49.127Z,20.39
2018-03-31T17:25:15.889Z,20.49
2018-03-31T17:27:43.056Z,20.45
2018-03-31T17:30:09.925Z,20.36
2018-03-31T17:32:36.837Z,20.34
2018-03-31T17:35:03.530Z,20.32
2018-03-31T17:37:30.254Z,20.49
2018-03-31T17:39:57.590Z,20.40
2018-03-31T17:42:24.527Z,20.28
2018-03-31T17:44:51.563Z,20.25
2018-03-31T17:47:18.312Z,20.21
2018-03-31T17:49:45.183Z,20.18
2018-03-31T17:52:12.129Z,20.16
2018-03-31T17:54:39.324Z,20.06
2018-03-31T17:57:06.212Z,20.12
2018-03-31T17:59:32.526Z,19.96
2018-03-31T18:01:58.835Z,19.86
2018-03-31T18:04:25.202Z,19.59
2018-03-31T18:06:52.022Z,19.44
2018-03-31T18:09:19.372Z,19.29
2018-03-31T18:11:45.756Z,19.27
2018-03-31T18:14:12.113Z,19.24
2018-03-31T18:16:39.609Z,19.16
2018-03-31T18:19:06.266Z,19.10
2018-03-31T18:21:32.890Z,19.08
2018-03-31T18:23:59.676Z,19.03
2018-03-31T18:26:26.554Z,19.07
2018-03-31T18:28:53.046Z,19.00
2018-03-31T18:31:20.147Z,18.76
2018-03-31T18:33:47.030Z,18.77
2018-03-31T18:36:13.646Z,18.78
2018-03-31T18:38:40.323Z,18.81
2018-03-31T18:41:08.523Z,18.61
2018-03-31T18:43:36.272Z,18.44
2018-03-31T18:46:03.232Z,18.30
2018-03-31T18:48:31.179Z,18.19
2018-03-31T18:50:58.926Z,18.10
2018-03-31T18:53:25.212Z,18.14
2018-03-31T18:55:52.536Z,18.21
2018-03-31T18:58:19.188Z,18.17
2018-03-31T19:00:45.624Z,18.04
2018-03-31T19:03:12.063Z,17.90
2018-03-31T19:05:38.745Z,17.84
2018-03-31T19:08:06.559Z,17.61
2018-03-31T19:10:34.448Z,17.57
2018-03-31T19:13:01.218Z,17.69
2018-03-31T19:15:28.569Z,17.70
2018-03-31T19:17:55.983Z,17.66
2018-03-31T19:20:23.204Z,17.57
2018-03-31T19:22:50.934Z,17.56
2018-03-31T19:25:23.153Z,17.68
2018-03-31T19:27:49.767Z,17.70
2018-03-31T19:30:17.745Z,17.47
2018-03-31T19:33:03.190Z,17.54
2018-03-31T19:35:52.222Z,17.54
2018-03-31T19:38:23.875Z,17.54
2018-03-31T19:40:57.820Z,17.53
2018-03-31T19:43:25.495Z,17.54
2018-03-31T19:45:52.296Z,17.64
2018-03-31T19:48:18.539Z,17.60
2018-03-31T19:50:44.634Z,17.67
2018-03-31T19:53:12.189Z,17.63
2018-03-31T19:55:39.059Z,17.56
2018-03-31T19:58:06.427Z,17.42
2018-03-31T20:00:33.261Z,17.43
2018-03-31T20:03:00.944Z,17.36
2018-03-31T20:05:27.480Z,17.22
2018-03-31T20:07:54.043Z,17.27
2018-03-31T20:10:20.733Z,17.25
2018-03-31T20:12:47.467Z,17.25
2018-03-31T20:15:14.452Z,17.28
2018-03-31T20:17:41.545Z,17.35
2018-03-31T20:20:09.425Z,17.18
2018-03-31T20:22:36.639Z,17.15
2018-03-31T20:25:11.966Z,17.22
2018-03-31T20:27:45.951Z,17.11
2018-03-31T20:30:15.616Z,17.25
2018-03-31T20:32:43.825Z,17.28
2018-03-31T20:35:10.730Z,17.24
2018-03-31T20:37:38.767Z,17.36
2018-03-31T20:40:06.918Z,17.26
2018-03-31T20:42:35.962Z,17.20
2018-03-31T20:45:08.377Z,17.28
2018-03-31T20:47:42.210Z,17.13
2018-03-31T20:50:10.479Z,16.94
2018-03-31T20:52:39.658Z,17.04
2018-03-31T20:55:09.454Z,17.02
2018-03-31T20:57:39.082Z,16.98
2018-03-31T21:00:14.674Z,16.98
2018-03-31T21:02:48.446Z,16.96
2018-03-31T21:05:18.409Z,16.86
2018-03-31T21:07:55.899Z,16.95
2018-03-31T21:10:40.838Z,16.86
2018-03-31T21:13:10.194Z,16.97
2018-03-31T21:15:40.000Z,17.00
2018-03-31T21:18:19.163Z,17.05
2018-03-31T21:23:36.574Z,17.04
2018-03-31T21:26:04.752Z,17.11
2018-03-31T21:28:38.684Z,17.04
2018-03-31T21:31:08.088Z,17.05
2018-03-31T21:33:39.084Z,17.04
2018-03-31T21:36:06.425Z,16.97
2018-03-31T21:38:39.875Z,17.07
2018-03-31T21:41:09.196Z,16.98
2018-03-31T21:43:38.991Z,16.85
2018-03-31T21:48:54.194Z,16.91
2018-03-31T21:52:09.130Z,16.67
2018-03-31T21:54:36.933Z,16.86
2018-03-31T21:57:07.156Z,16.73
2018-03-31T21:59:42.838Z,16.49
2018-03-31T22:02:38.728Z,16.54
2018-03-31T22:07:44.834Z,16.35
2018-03-31T22:10:12.634Z,16.42
2018-03-31T22:12:43.737Z,16.52
2018-03-31T22:18:26.030Z,16.70
2018-03-31T22:23:44.457Z,16.25
2018-03-31T22:26:15.190Z,16.29
2018-03-31T22:31:18.491Z,16.40
2018-03-31T22:33:48.780Z,16.42
2018-03-31T22:36:17.295Z,16.34
2018-03-31T22:38:54.661Z,16.29
2018-03-31T22:41:24.423Z,16.39
2018-03-31T22:43:54.472Z,16.44
2018-03-31T22:46:32.353Z,16.40
2018-03-31T22:49:03.378Z,16.39
2018-03-31T22:54:09.652Z,16.44
2018-03-31T22:56:39.333Z,16.45
2018-03-31T22:59:07.008Z,16.52
2018-03-31T23:01:42.175Z,16.45
2018-03-31T23:04:11.613Z,16.50
2018-03-31T23:06:42.009Z,16.57
2018-03-31T23:09:10.920Z,16.66
2018-03-31T23:11:42.822Z,16.80
2018-03-31T23:17:20.452Z,16.65
2018-03-31T23:19:55.327Z,16.73
2018-03-31T23:22:24.481Z,16.69
2018-03-31T23:35:21.110Z,16.72
2018-03-31T23:37:54.789Z,16.61
